sensor_id;sensor_type;location;lat;lon;timestamp;P1;durP1;ratioP1;P2;durP2;ratioP2
77109;SDS011;66062;52.464;16.922;2023-03-31T00:00:08;13.90;;;4.97;;
77109;SDS011;66062;52.464;16.922;2023-03-31T00:02:37;10.82;;;5.65;;
77109;SDS011;66062;52.464;16.922;2023-03-31T00:05:06;9.32;;;5.25;;
77109;SDS011;66062;52.464;16.922;2023-03-31T00:09:57;9.15;;;5.30;;
77109;SDS011;66062;52.464;16.922;2023-03-31T00:12:26;14.07;;;5.47;;
77109;SDS011;66062;52.464;16.922;2023-03-31T00:14:51;11.27;;;5.38;;
77109;SDS011;66062;52.464;16.922;2023-03-31T00:17:17;10.77;;;5.68;;
77109;SDS011;66062;52.464;16.922;2023-03-31T00:19:42;12.93;;;6.20;;
77109;SDS011;66062;52.464;16.922;2023-03-31T00:22:08;11.70;;;6.47;;
77109;SDS011;66062;52.464;16.922;2023-03-31T00:24:34;12.07;;;5.88;;
77109;SDS011;66062;52.464;16.922;2023-03-31T00:27:03;12.23;;;5.75;;
77109;SDS011;66062;52.464;16.922;2023-03-31T00:29:29;10.40;;;5.85;;
77109;SDS011;66062;52.464;16.922;2023-03-31T00:31:57;10.73;;;5.13;;
77109;SDS011;66062;52.464;16.922;2023-03-31T00:34:23;11.85;;;5.55;;
77109;SDS011;66062;52.464;16.922;2023-03-31T00:36:50;8.20;;;5.28;;
77109;SDS011;66062;52.464;16.922;2023-03-31T00:39:16;9.80;;;6.28;;
77109;SDS011;66062;52.464;16.922;2023-03-31T00:41:43;11.88;;;6.47;;
77109;SDS011;66062;52.464;16.922;2023-03-31T00:49:17;10.40;;;6.57;;
77109;SDS011;66062;52.464;16.922;2023-03-31T00:51:51;12.23;;;6.45;;
77109;SDS011;66062;52.464;16.922;2023-03-31T00:54:19;16.08;;;6.65;;
77109;SDS011;66062;52.464;16.922;2023-03-31T00:56:47;11.85;;;7.07;;
77109;SDS011;66062;52.464;16.922;2023-03-31T00:59:17;15.38;;;7.60;;
77109;SDS011;66062;52.464;16.922;2023-03-31T01:01:44;11.00;;;7.85;;
77109;SDS011;66062;52.464;16.922;2023-03-31T01:04:12;16.92;;;7.40;;
77109;SDS011;66062;52.464;16.922;2023-03-31T01:06:51;13.48;;;7.57;;
77109;SDS011;66062;52.464;16.922;2023-03-31T01:09:24;15.60;;;8.27;;
77109;SDS011;66062;52.464;16.922;2023-03-31T01:11:54;12.70;;;7.63;;
77109;SDS011;66062;52.464;16.922;2023-03-31T01:14:20;14.02;;;7.80;;
77109;SDS011;66062;52.464;16.922;2023-03-31T01:16:46;13.52;;;7.65;;
77109;SDS011;66062;52.464;16.922;2023-03-31T01:19:18;14.30;;;8.30;;
77109;SDS011;66062;52.464;16.922;2023-03-31T01:22:16;15.88;;;7.43;;
77109;SDS011;66062;52.464;16.922;2023-03-31T01:35:43;14.85;;;6.25;;
77109;SDS011;66062;52.464;16.922;2023-03-31T01:46:52;12.95;;;6.65;;
77109;SDS011;66062;52.464;16.922;2023-03-31T01:49:38;12.10;;;5.60;;
77109;SDS011;66062;52.464;16.922;2023-03-31T01:52:18;11.38;;;5.63;;
77109;SDS011;66062;52.464;16.922;2023-03-31T01:54:54;10.15;;;5.15;;
77109;SDS011;66062;52.464;16.922;2023-03-31T01:57:31;10.30;;;5.35;;
77109;SDS011;66062;52.464;16.922;2023-03-31T02:00:27;14.45;;;6.00;;
77109;SDS011;66062;52.464;16.922;2023-03-31T02:05:29;16.60;;;5.70;;
77109;SDS011;66062;52.464;16.922;2023-03-31T02:08:09;9.85;;;5.22;;
77109;SDS011;66062;52.464;16.922;2023-03-31T02:10:39;10.60;;;5.75;;
77109;SDS011;66062;52.464;16.922;2023-03-31T02:13:07;12.18;;;5.80;;
77109;SDS011;66062;52.464;16.922;2023-03-31T02:15:36;9.40;;;5.93;;
77109;SDS011;66062;52.464;16.922;2023-03-31T02:18:06;10.68;;;6.13;;
77109;SDS011;66062;52.464;16.922;2023-03-31T02:20:38;9.63;;;6.22;;
77109;SDS011;66062;52.464;16.922;2023-03-31T02:23:06;10.20;;;6.22;;
77109;SDS011;66062;52.464;16.922;2023-03-31T02:25:35;12.90;;;6.60;;
77109;SDS011;66062;52.464;16.922;2023-03-31T02:28:11;12.27;;;6.57;;
77109;SDS011;66062;52.464;16.922;2023-03-31T02:33:27;11.75;;;6.57;;
77109;SDS011;66062;52.464;16.922;2023-03-31T02:35:52;11.98;;;6.55;;
77109;SDS011;66062;52.464;16.922;2023-03-31T02:38:18;9.32;;;6.30;;
77109;SDS011;66062;52.464;16.922;2023-03-31T02:40:44;11.57;;;6.03;;
77109;SDS011;66062;52.464;16.922;2023-03-31T02:43:09;12.73;;;6.07;;
77109;SDS011;66062;52.464;16.922;2023-03-31T02:45:42;13.07;;;6.13;;
77109;SDS011;66062;52.464;16.922;2023-03-31T02:48:12;11.00;;;6.13;;
77109;SDS011;66062;52.464;16.922;2023-03-31T02:53:50;10.70;;;6.50;;
77109;SDS011;66062;52.464;16.922;2023-03-31T02:56:36;10.25;;;5.55;;
77109;SDS011;66062;52.464;16.922;2023-03-31T03:10:19;10.68;;;6.45;;
77109;SDS011;66062;52.464;16.922;2023-03-31T03:12:55;10.45;;;6.13;;
77109;SDS011;66062;52.464;16.922;2023-03-31T03:15:36;11.15;;;6.10;;
77109;SDS011;66062;52.464;16.922;2023-03-31T03:18:11;9.35;;;6.60;;
77109;SDS011;66062;52.464;16.922;2023-03-31T03:20:37;12.13;;;6.65;;
77109;SDS011;66062;52.464;16.922;2023-03-31T03:23:06;12.35;;;6.55;;
77109;SDS011;66062;52.464;16.922;2023-03-31T03:25:32;11.75;;;5.75;;
77109;SDS011;66062;52.464;16.922;2023-03-31T03:27:58;10.70;;;5.53;;
77109;SDS011;66062;52.464;16.922;2023-03-31T03:30:24;10.55;;;5.25;;
77109;SDS011;66062;52.464;16.922;2023-03-31T03:32:49;10.70;;;5.10;;
77109;SDS011;66062;52.464;16.922;2023-03-31T03:35:15;10.20;;;5.72;;
77109;SDS011;66062;52.464;16.922;2023-03-31T03:37:40;12.48;;;6.32;;
77109;SDS011;66062;52.464;16.922;2023-03-31T03:40:06;20.42;;;10.43;;
77109;SDS011;66062;52.464;16.922;2023-03-31T03:42:33;29.38;;;14.00;;
77109;SDS011;66062;52.464;16.922;2023-03-31T03:44:59;8.32;;;5.45;;
77109;SDS011;66062;52.464;16.922;2023-03-31T03:47:25;12.75;;;4.78;;
77109;SDS011;66062;52.464;16.922;2023-03-31T03:49:51;7.95;;;4.53;;
77109;SDS011;66062;52.464;16.922;2023-03-31T03:52:16;8.75;;;5.13;;
77109;SDS011;66062;52.464;16.922;2023-03-31T03:54:42;10.25;;;5.07;;
77109;SDS011;66062;52.464;16.922;2023-03-31T03:57:07;9.70;;;4.70;;
77109;SDS011;66062;52.464;16.922;2023-03-31T03:59:33;8.50;;;4.53;;
77109;SDS011;66062;52.464;16.922;2023-03-31T04:01:58;9.18;;;4.60;;
77109;SDS011;66062;52.464;16.922;2023-03-31T04:04:23;10.00;;;4.55;;
77109;SDS011;66062;52.464;16.922;2023-03-31T04:06:49;12.88;;;5.57;;
77109;SDS011;66062;52.464;16.922;2023-03-31T04:09:15;11.65;;;4.47;;
77109;SDS011;66062;52.464;16.922;2023-03-31T04:11:40;8.27;;;4.15;;
77109;SDS011;66062;52.464;16.922;2023-03-31T04:14:06;12.70;;;3.83;;
77109;SDS011;66062;52.464;16.922;2023-03-31T04:16:31;10.13;;;3.95;;
77109;SDS011;66062;52.464;16.922;2023-03-31T04:18:58;9.23;;;4.03;;
77109;SDS011;66062;52.464;16.922;2023-03-31T04:21:27;7.90;;;4.03;;
77109;SDS011;66062;52.464;16.922;2023-03-31T04:23:55;6.72;;;4.15;;
77109;SDS011;66062;52.464;16.922;2023-03-31T04:26:26;6.70;;;3.90;;
77109;SDS011;66062;52.464;16.922;2023-03-31T04:29:05;10.57;;;3.58;;
77109;SDS011;66062;52.464;16.922;2023-03-31T04:31:31;13.55;;;3.80;;
77109;SDS011;66062;52.464;16.922;2023-03-31T04:33:57;8.00;;;3.78;;
77109;SDS011;66062;52.464;16.922;2023-03-31T04:36:27;7.90;;;3.85;;
77109;SDS011;66062;52.464;16.922;2023-03-31T04:38:55;6.82;;;3.60;;
77109;SDS011;66062;52.464;16.922;2023-03-31T04:41:22;9.48;;;3.72;;
77109;SDS011;66062;52.464;16.922;2023-03-31T04:43:49;8.85;;;3.30;;
77109;SDS011;66062;52.464;16.922;2023-03-31T04:46:14;8.32;;;3.15;;
77109;SDS011;66062;52.464;16.922;2023-03-31T04:48:40;8.68;;;3.42;;
77109;SDS011;66062;52.464;16.922;2023-03-31T04:51:05;10.43;;;3.55;;
77109;SDS011;66062;52.464;16.922;2023-03-31T04:53:32;10.15;;;3.45;;
77109;SDS011;66062;52.464;16.922;2023-03-31T04:55:57;7.72;;;3.58;;
77109;SDS011;66062;52.464;16.922;2023-03-31T04:58:23;8.77;;;3.88;;
77109;SDS011;66062;52.464;16.922;2023-03-31T05:00:48;8.02;;;3.00;;
77109;SDS011;66062;52.464;16.922;2023-03-31T05:03:14;8.02;;;3.42;;
77109;SDS011;66062;52.464;16.922;2023-03-31T05:05:39;8.57;;;2.95;;
77109;SDS011;66062;52.464;16.922;2023-03-31T05:08:04;5.78;;;2.70;;
77109;SDS011;66062;52.464;16.922;2023-03-31T05:10:30;9.80;;;3.55;;
77109;SDS011;66062;52.464;16.922;2023-03-31T05:12:56;6.05;;;2.90;;
77109;SDS011;66062;52.464;16.922;2023-03-31T05:15:22;8.68;;;2.78;;
77109;SDS011;66062;52.464;16.922;2023-03-31T05:17:51;9.93;;;2.85;;
77109;SDS011;66062;52.464;16.922;2023-03-31T05:20:17;5.47;;;2.70;;
77109;SDS011;66062;52.464;16.922;2023-03-31T05:22:43;4.63;;;2.72;;
77109;SDS011;66062;52.464;16.922;2023-03-31T05:25:09;12.07;;;3.58;;
77109;SDS011;66062;52.464;16.922;2023-03-31T05:27:38;7.15;;;2.92;;
77109;SDS011;66062;52.464;16.922;2023-03-31T05:30:04;6.65;;;2.65;;
77109;SDS011;66062;52.464;16.922;2023-03-31T05:32:32;11.35;;;3.15;;
77109;SDS011;66062;52.464;16.922;2023-03-31T05:34:58;10.65;;;3.05;;
77109;SDS011;66062;52.464;16.922;2023-03-31T05:37:23;10.50;;;3.13;;
77109;SDS011;66062;52.464;16.922;2023-03-31T05:39:50;8.00;;;3.30;;
77109;SDS011;66062;52.464;16.922;2023-03-31T05:42:15;9.23;;;3.38;;
77109;SDS011;66062;52.464;16.922;2023-03-31T05:44:41;6.80;;;3.00;;
77109;SDS011;66062;52.464;16.922;2023-03-31T05:47:07;6.95;;;3.28;;
77109;SDS011;66062;52.464;16.922;2023-03-31T05:49:32;7.65;;;2.65;;
77109;SDS011;66062;52.464;16.922;2023-03-31T05:51:58;5.60;;;2.40;;
77109;SDS011;66062;52.464;16.922;2023-03-31T05:54:23;10.15;;;3.78;;
77109;SDS011;66062;52.464;16.922;2023-03-31T05:56:49;6.50;;;2.92;;
77109;SDS011;66062;52.464;16.922;2023-03-31T05:59:15;9.95;;;3.33;;
77109;SDS011;66062;52.464;16.922;2023-03-31T06:01:40;6.88;;;2.97;;
77109;SDS011;66062;52.464;16.922;2023-03-31T06:04:06;6.80;;;2.97;;
77109;SDS011;66062;52.464;16.922;2023-03-31T06:06:31;5.45;;;2.80;;
77109;SDS011;66062;52.464;16.922;2023-03-31T06:09:02;7.13;;;3.00;;
77109;SDS011;66062;52.464;16.922;2023-03-31T06:11:28;12.13;;;3.58;;
77109;SDS011;66062;52.464;16.922;2023-03-31T06:13:53;8.07;;;3.10;;
77109;SDS011;66062;52.464;16.922;2023-03-31T06:16:19;6.78;;;2.92;;
77109;SDS011;66062;52.464;16.922;2023-03-31T06:18:44;6.35;;;2.90;;
77109;SDS011;66062;52.464;16.922;2023-03-31T06:21:14;8.48;;;3.15;;
77109;SDS011;66062;52.464;16.922;2023-03-31T06:23:41;9.23;;;3.08;;
77109;SDS011;66062;52.464;16.922;2023-03-31T06:28:51;5.03;;;2.58;;
77109;SDS011;66062;52.464;16.922;2023-03-31T06:31:18;5.85;;;2.42;;
77109;SDS011;66062;52.464;16.922;2023-03-31T06:33:45;9.73;;;2.67;;
77109;SDS011;66062;52.464;16.922;2023-03-31T06:36:12;7.93;;;2.58;;
77109;SDS011;66062;52.464;16.922;2023-03-31T06:38:40;4.57;;;2.28;;
77109;SDS011;66062;52.464;16.922;2023-03-31T06:41:06;9.30;;;2.40;;
77109;SDS011;66062;52.464;16.922;2023-03-31T06:43:32;5.78;;;2.38;;
77109;SDS011;66062;52.464;16.922;2023-03-31T06:45:58;8.10;;;2.40;;
77109;SDS011;66062;52.464;16.922;2023-03-31T06:48:24;7.07;;;2.80;;
77109;SDS011;66062;52.464;16.922;2023-03-31T06:50:50;5.57;;;2.33;;
77109;SDS011;66062;52.464;16.922;2023-03-31T06:53:17;5.60;;;2.53;;
77109;SDS011;66062;52.464;16.922;2023-03-31T06:55:43;7.80;;;2.92;;
77109;SDS011;66062;52.464;16.922;2023-03-31T06:58:08;9.10;;;2.72;;
77109;SDS011;66062;52.464;16.922;2023-03-31T07:00:35;9.07;;;3.58;;
77109;SDS011;66062;52.464;16.922;2023-03-31T07:03:01;10.10;;;3.10;;
77109;SDS011;66062;52.464;16.922;2023-03-31T07:05:28;8.05;;;3.05;;
77109;SDS011;66062;52.464;16.922;2023-03-31T07:07:57;5.93;;;2.55;;
77109;SDS011;66062;52.464;16.922;2023-03-31T07:10:25;6.65;;;2.10;;
77109;SDS011;66062;52.464;16.922;2023-03-31T07:12:51;9.80;;;2.60;;
77109;SDS011;66062;52.464;16.922;2023-03-31T07:15:17;9.05;;;2.65;;
77109;SDS011;66062;52.464;16.922;2023-03-31T07:17:43;10.05;;;2.88;;
77109;SDS011;66062;52.464;16.922;2023-03-31T07:20:09;7.07;;;2.15;;
77109;SDS011;66062;52.464;16.922;2023-03-31T07:22:39;7.75;;;1.90;;
77109;SDS011;66062;52.464;16.922;2023-03-31T07:29:57;5.07;;;1.90;;
77109;SDS011;66062;52.464;16.922;2023-03-31T07:32:22;7.55;;;3.00;;
77109;SDS011;66062;52.464;16.922;2023-03-31T07:34:48;6.47;;;2.20;;
77109;SDS011;66062;52.464;16.922;2023-03-31T07:37:13;6.78;;;2.33;;
77109;SDS011;66062;52.464;16.922;2023-03-31T07:39:39;5.72;;;2.28;;
77109;SDS011;66062;52.464;16.922;2023-03-31T07:42:04;8.82;;;2.42;;
77109;SDS011;66062;52.464;16.922;2023-03-31T07:44:32;5.72;;;2.10;;
77109;SDS011;66062;52.464;16.922;2023-03-31T07:46:58;5.88;;;1.95;;
77109;SDS011;66062;52.464;16.922;2023-03-31T07:49:28;8.05;;;2.67;;
77109;SDS011;66062;52.464;16.922;2023-03-31T07:51:53;6.78;;;2.05;;
77109;SDS011;66062;52.464;16.922;2023-03-31T07:54:19;6.82;;;2.20;;
77109;SDS011;66062;52.464;16.922;2023-03-31T07:56:44;6.45;;;2.28;;
77109;SDS011;66062;52.464;16.922;2023-03-31T07:59:10;4.55;;;2.10;;
77109;SDS011;66062;52.464;16.922;2023-03-31T08:01:35;8.02;;;2.70;;
77109;SDS011;66062;52.464;16.922;2023-03-31T08:04:01;8.70;;;2.63;;
77109;SDS011;66062;52.464;16.922;2023-03-31T08:06:27;10.02;;;2.28;;
77109;SDS011;66062;52.464;16.922;2023-03-31T08:08:53;7.30;;;2.58;;
77109;SDS011;66062;52.464;16.922;2023-03-31T08:11:19;6.05;;;2.92;;
77109;SDS011;66062;52.464;16.922;2023-03-31T08:13:48;4.68;;;2.22;;
77109;SDS011;66062;52.464;16.922;2023-03-31T08:16:14;7.80;;;2.67;;
77109;SDS011;66062;52.464;16.922;2023-03-31T08:18:40;11.15;;;2.45;;
77109;SDS011;66062;52.464;16.922;2023-03-31T08:21:05;6.95;;;2.67;;
77109;SDS011;66062;52.464;16.922;2023-03-31T08:23:33;10.02;;;2.47;;
77109;SDS011;66062;52.464;16.922;2023-03-31T08:26:12;7.88;;;2.40;;
77109;SDS011;66062;52.464;16.922;2023-03-31T08:28:42;7.70;;;2.47;;
77109;SDS011;66062;52.464;16.922;2023-03-31T08:31:07;6.93;;;2.50;;
77109;SDS011;66062;52.464;16.922;2023-03-31T08:33:34;5.82;;;2.28;;
77109;SDS011;66062;52.464;16.922;2023-03-31T08:38:27;4.45;;;2.20;;
77109;SDS011;66062;52.464;16.922;2023-03-31T08:41:02;11.65;;;4.45;;
77109;SDS011;66062;52.464;16.922;2023-03-31T08:43:32;6.30;;;2.35;;
77109;SDS011;66062;52.464;16.922;2023-03-31T08:46:02;7.60;;;2.92;;
77109;SDS011;66062;52.464;16.922;2023-03-31T08:48:36;12.85;;;2.83;;
77109;SDS011;66062;52.464;16.922;2023-03-31T08:51:28;6.97;;;2.25;;
77109;SDS011;66062;52.464;16.922;2023-03-31T08:54:06;8.10;;;3.35;;
77109;SDS011;66062;52.464;16.922;2023-03-31T08:56:40;5.07;;;2.20;;
77109;SDS011;66062;52.464;16.922;2023-03-31T08:59:16;8.52;;;2.20;;
77109;SDS011;66062;52.464;16.922;2023-03-31T09:10:02;5.75;;;2.50;;
77109;SDS011;66062;52.464;16.922;2023-03-31T09:18:26;6.88;;;2.35;;
77109;SDS011;66062;52.464;16.922;2023-03-31T09:20:55;7.07;;;2.85;;
77109;SDS011;66062;52.464;16.922;2023-03-31T09:23:46;7.78;;;2.20;;
77109;SDS011;66062;52.464;16.922;2023-03-31T09:26:20;6.65;;;2.72;;
77109;SDS011;66062;52.464;16.922;2023-03-31T09:28:51;8.70;;;2.38;;
77109;SDS011;66062;52.464;16.922;2023-03-31T09:31:19;7.32;;;2.85;;
77109;SDS011;66062;52.464;16.922;2023-03-31T09:33:47;6.07;;;2.65;;
77109;SDS011;66062;52.464;16.922;2023-03-31T09:36:18;10.63;;;2.80;;
77109;SDS011;66062;52.464;16.922;2023-03-31T09:38:46;6.85;;;2.28;;
77109;SDS011;66062;52.464;16.922;2023-03-31T09:41:13;6.68;;;2.08;;
77109;SDS011;66062;52.464;16.922;2023-03-31T09:43:40;5.72;;;2.08;;
77109;SDS011;66062;52.464;16.922;2023-03-31T09:48:57;5.25;;;1.90;;
77109;SDS011;66062;52.464;16.922;2023-03-31T09:51:27;7.95;;;1.75;;
77109;SDS011;66062;52.464;16.922;2023-03-31T09:56:50;7.70;;;1.92;;
77109;SDS011;66062;52.464;16.922;2023-03-31T09:59:20;7.28;;;2.20;;
77109;SDS011;66062;52.464;16.922;2023-03-31T10:01:56;8.57;;;2.42;;
77109;SDS011;66062;52.464;16.922;2023-03-31T10:04:25;7.18;;;2.50;;
77109;SDS011;66062;52.464;16.922;2023-03-31T10:06:53;9.13;;;2.17;;
77109;SDS011;66062;52.464;16.922;2023-03-31T10:09:20;4.43;;;1.80;;
77109;SDS011;66062;52.464;16.922;2023-03-31T10:11:57;10.75;;;2.40;;
77109;SDS011;66062;52.464;16.922;2023-03-31T10:14:32;6.95;;;2.70;;
77109;SDS011;66062;52.464;16.922;2023-03-31T10:17:13;10.27;;;2.60;;
77109;SDS011;66062;52.464;16.922;2023-03-31T10:19:46;10.00;;;3.10;;
77109;SDS011;66062;52.464;16.922;2023-03-31T10:22:32;9.23;;;2.95;;
77109;SDS011;66062;52.464;16.922;2023-03-31T10:25:09;12.05;;;2.83;;
77109;SDS011;66062;52.464;16.922;2023-03-31T10:27:41;9.25;;;2.40;;
77109;SDS011;66062;52.464;16.922;2023-03-31T10:30:11;8.80;;;2.80;;
77109;SDS011;66062;52.464;16.922;2023-03-31T10:32:47;11.57;;;2.95;;
77109;SDS011;66062;52.464;16.922;2023-03-31T10:37:47;8.02;;;2.80;;
77109;SDS011;66062;52.464;16.922;2023-03-31T10:40:18;7.13;;;2.35;;
77109;SDS011;66062;52.464;16.922;2023-03-31T10:42:46;7.45;;;2.85;;
77109;SDS011;66062;52.464;16.922;2023-03-31T10:47:52;5.45;;;2.20;;
77109;SDS011;66062;52.464;16.922;2023-03-31T10:50:19;9.02;;;2.60;;
77109;SDS011;66062;52.464;16.922;2023-03-31T10:52:51;9.15;;;2.65;;
77109;SDS011;66062;52.464;16.922;2023-03-31T10:55:21;7.35;;;2.35;;
77109;SDS011;66062;52.464;16.922;2023-03-31T11:00:49;7.32;;;2.22;;
77109;SDS011;66062;52.464;16.922;2023-03-31T11:06:04;6.78;;;2.40;;
77109;SDS011;66062;52.464;16.922;2023-03-31T11:11:57;6.28;;;1.75;;
77109;SDS011;66062;52.464;16.922;2023-03-31T11:15:06;5.93;;;2.00;;
77109;SDS011;66062;52.464;16.922;2023-03-31T11:26:18;7.25;;;2.35;;
77109;SDS011;66062;52.464;16.922;2023-03-31T11:31:35;8.48;;;2.13;;
77109;SDS011;66062;52.464;16.922;2023-03-31T11:36:47;10.77;;;2.47;;
77109;SDS011;66062;52.464;16.922;2023-03-31T11:44:53;8.85;;;2.53;;
77109;SDS011;66062;52.464;16.922;2023-03-31T11:47:25;10.27;;;2.42;;
77109;SDS011;66062;52.464;16.922;2023-03-31T11:49:59;7.97;;;3.25;;
77109;SDS011;66062;52.464;16.922;2023-03-31T11:54:58;7.70;;;3.25;;
77109;SDS011;66062;52.464;16.922;2023-03-31T11:57:31;6.47;;;2.40;;
77109;SDS011;66062;52.464;16.922;2023-03-31T12:00:06;9.70;;;3.17;;
77109;SDS011;66062;52.464;16.922;2023-03-31T12:05:32;10.95;;;2.38;;
77109;SDS011;66062;52.464;16.922;2023-03-31T12:08:02;8.93;;;3.10;;
77109;SDS011;66062;52.464;16.922;2023-03-31T12:10:36;10.25;;;3.45;;
77109;SDS011;66062;52.464;16.922;2023-03-31T12:15:55;10.02;;;3.05;;
77109;SDS011;66062;52.464;16.922;2023-03-31T12:18:25;8.88;;;3.25;;
77109;SDS011;66062;52.464;16.922;2023-03-31T12:20:56;10.13;;;3.70;;
77109;SDS011;66062;52.464;16.922;2023-03-31T12:23:29;9.02;;;3.65;;
77109;SDS011;66062;52.464;16.922;2023-03-31T12:28:56;11.43;;;3.97;;
77109;SDS011;66062;52.464;16.922;2023-03-31T12:31:24;6.85;;;2.70;;
77109;SDS011;66062;52.464;16.922;2023-03-31T12:33:56;7.03;;;3.45;;
77109;SDS011;66062;52.464;16.922;2023-03-31T12:36:34;9.75;;;3.97;;
77109;SDS011;66062;52.464;16.922;2023-03-31T12:42:31;7.65;;;3.35;;
77109;SDS011;66062;52.464;16.922;2023-03-31T12:45:17;7.72;;;3.25;;
77109;SDS011;66062;52.464;16.922;2023-03-31T12:56:14;8.95;;;1.92;;
77109;SDS011;66062;52.464;16.922;2023-03-31T12:58:41;5.93;;;2.50;;
77109;SDS011;66062;52.464;16.922;2023-03-31T13:01:21;7.35;;;2.30;;
77109;SDS011;66062;52.464;16.922;2023-03-31T13:03:51;7.65;;;2.47;;
77109;SDS011;66062;52.464;16.922;2023-03-31T13:11:33;7.20;;;2.50;;
77109;SDS011;66062;52.464;16.922;2023-03-31T13:19:51;10.55;;;3.40;;
77109;SDS011;66062;52.464;16.922;2023-03-31T13:27:53;7.78;;;2.83;;
77109;SDS011;66062;52.464;16.922;2023-03-31T13:30:53;9.05;;;4.55;;
77109;SDS011;66062;52.464;16.922;2023-03-31T13:33:13;10.07;;;2.75;;
77109;SDS011;66062;52.464;16.922;2023-03-31T13:38:45;7.28;;;2.90;;
77109;SDS011;66062;52.464;16.922;2023-03-31T13:52:25;10.63;;;3.35;;
77109;SDS011;66062;52.464;16.922;2023-03-31T13:55:17;6.43;;;2.70;;
77109;SDS011;66062;52.464;16.922;2023-03-31T14:04:32;7.53;;;2.50;;
77109;SDS011;66062;52.464;16.922;2023-03-31T14:06:43;10.55;;;3.30;;
77109;SDS011;66062;52.464;16.922;2023-03-31T14:09:28;10.13;;;3.50;;
77109;SDS011;66062;52.464;16.922;2023-03-31T14:11:57;6.72;;;3.33;;
77109;SDS011;66062;52.464;16.922;2023-03-31T14:14:24;9.10;;;4.03;;
77109;SDS011;66062;52.464;16.922;2023-03-31T14:16:53;10.43;;;4.30;;
77109;SDS011;66062;52.464;16.922;2023-03-31T14:32:34;8.60;;;3.88;;
77109;SDS011;66062;52.464;16.922;2023-03-31T14:35:28;9.10;;;3.08;;
77109;SDS011;66062;52.464;16.922;2023-03-31T14:38:02;8.55;;;3.75;;
77109;SDS011;66062;52.464;16.922;2023-03-31T14:40:30;8.45;;;4.30;;
77109;SDS011;66062;52.464;16.922;2023-03-31T14:42:56;11.73;;;4.50;;
77109;SDS011;66062;52.464;16.922;2023-03-31T14:45:24;11.35;;;3.90;;
77109;SDS011;66062;52.464;16.922;2023-03-31T14:48:02;11.88;;;5.05;;
77109;SDS011;66062;52.464;16.922;2023-03-31T14:50:35;7.82;;;4.20;;
77109;SDS011;66062;52.464;16.922;2023-03-31T14:53:01;12.77;;;5.00;;
77109;SDS011;66062;52.464;16.922;2023-03-31T14:55:28;12.68;;;5.28;;
77109;SDS011;66062;52.464;16.922;2023-03-31T14:57:57;10.93;;;4.70;;
77109;SDS011;66062;52.464;16.922;2023-03-31T15:00:29;11.40;;;4.85;;
77109;SDS011;66062;52.464;16.922;2023-03-31T15:02:57;10.95;;;5.70;;
77109;SDS011;66062;52.464;16.922;2023-03-31T15:05:29;11.40;;;6.60;;
77109;SDS011;66062;52.464;16.922;2023-03-31T15:08:01;10.27;;;6.18;;
77109;SDS011;66062;52.464;16.922;2023-03-31T15:10:32;12.07;;;5.00;;
77109;SDS011;66062;52.464;16.922;2023-03-31T15:13:08;7.30;;;4.80;;
77109;SDS011;66062;52.464;16.922;2023-03-31T15:15:36;10.13;;;3.20;;
77109;SDS011;66062;52.464;16.922;2023-03-31T15:18:02;6.13;;;2.60;;
77109;SDS011;66062;52.464;16.922;2023-03-31T15:20:35;8.27;;;3.92;;
77109;SDS011;66062;52.464;16.922;2023-03-31T15:23:02;7.25;;;3.90;;
77109;SDS011;66062;52.464;16.922;2023-03-31T15:25:42;7.85;;;4.03;;
77109;SDS011;66062;52.464;16.922;2023-03-31T15:28:12;7.63;;;3.92;;
77109;SDS011;66062;52.464;16.922;2023-03-31T15:30:40;12.95;;;5.05;;
77109;SDS011;66062;52.464;16.922;2023-03-31T15:33:07;13.75;;;4.63;;
77109;SDS011;66062;52.464;16.922;2023-03-31T15:35:38;12.05;;;5.00;;
77109;SDS011;66062;52.464;16.922;2023-03-31T15:38:04;12.40;;;4.90;;
77109;SDS011;66062;52.464;16.922;2023-03-31T15:40:31;8.63;;;5.10;;
77109;SDS011;66062;52.464;16.922;2023-03-31T15:48:35;12.02;;;5.68;;
77109;SDS011;66062;52.464;16.922;2023-03-31T15:53:43;12.47;;;6.10;;
77109;SDS011;66062;52.464;16.922;2023-03-31T16:01:45;14.13;;;6.97;;
77109;SDS011;66062;52.464;16.922;2023-03-31T16:09:11;14.55;;;7.70;;
77109;SDS011;66062;52.464;16.922;2023-03-31T16:11:51;15.32;;;8.55;;
77109;SDS011;66062;52.464;16.922;2023-03-31T16:14:21;14.38;;;7.93;;
77109;SDS011;66062;52.464;16.922;2023-03-31T16:17:12;19.52;;;9.18;;
77109;SDS011;66062;52.464;16.922;2023-03-31T16:19:55;20.08;;;9.00;;
77109;SDS011;66062;52.464;16.922;2023-03-31T16:22:33;17.08;;;9.13;;
77109;SDS011;66062;52.464;16.922;2023-03-31T16:25:10;18.85;;;8.82;;
77109;SDS011;66062;52.464;16.922;2023-03-31T16:27:39;19.00;;;9.48;;
77109;SDS011;66062;52.464;16.922;2023-03-31T16:30:09;19.52;;;10.45;;
77109;SDS011;66062;52.464;16.922;2023-03-31T16:32:37;17.85;;;10.63;;
77109;SDS011;66062;52.464;16.922;2023-03-31T16:35:03;18.17;;;10.30;;
77109;SDS011;66062;52.464;16.922;2023-03-31T16:37:30;19.23;;;10.65;;
77109;SDS011;66062;52.464;16.922;2023-03-31T16:39:55;18.08;;;8.48;;
77109;SDS011;66062;52.464;16.922;2023-03-31T16:42:21;18.98;;;9.20;;
77109;SDS011;66062;52.464;16.922;2023-03-31T16:44:46;16.05;;;7.78;;
77109;SDS011;66062;52.464;16.922;2023-03-31T16:47:12;15.57;;;8.20;;
77109;SDS011;66062;52.464;16.922;2023-03-31T16:49:39;15.07;;;8.52;;
77109;SDS011;66062;52.464;16.922;2023-03-31T16:52:05;21.63;;;10.43;;
77109;SDS011;66062;52.464;16.922;2023-03-31T16:54:33;20.95;;;10.90;;
77109;SDS011;66062;52.464;16.922;2023-03-31T16:56:58;16.30;;;10.48;;
77109;SDS011;66062;52.464;16.922;2023-03-31T16:59:24;19.30;;;11.27;;
77109;SDS011;66062;52.464;16.922;2023-03-31T17:01:49;13.02;;;7.97;;
77109;SDS011;66062;52.464;16.922;2023-03-31T17:04:16;20.38;;;9.55;;
77109;SDS011;66062;52.464;16.922;2023-03-31T17:06:41;14.57;;;9.75;;
77109;SDS011;66062;52.464;16.922;2023-03-31T17:09:08;15.32;;;8.73;;
77109;SDS011;66062;52.464;16.922;2023-03-31T17:11:33;10.85;;;6.72;;
77109;SDS011;66062;52.464;16.922;2023-03-31T17:13:59;13.32;;;7.00;;
77109;SDS011;66062;52.464;16.922;2023-03-31T17:16:26;17.98;;;10.27;;
77109;SDS011;66062;52.464;16.922;2023-03-31T17:18:52;16.55;;;9.32;;
77109;SDS011;66062;52.464;16.922;2023-03-31T17:21:18;12.02;;;7.15;;
77109;SDS011;66062;52.464;16.922;2023-03-31T17:23:44;12.82;;;7.32;;
77109;SDS011;66062;52.464;16.922;2023-03-31T17:26:11;14.98;;;6.72;;
77109;SDS011;66062;52.464;16.922;2023-03-31T17:28:37;10.02;;;6.30;;
77109;SDS011;66062;52.464;16.922;2023-03-31T17:31:10;12.27;;;6.50;;
77109;SDS011;66062;52.464;16.922;2023-03-31T17:33:37;13.23;;;6.78;;
77109;SDS011;66062;52.464;16.922;2023-03-31T17:36:02;11.57;;;6.55;;
77109;SDS011;66062;52.464;16.922;2023-03-31T17:38:28;21.65;;;14.32;;
77109;SDS011;66062;52.464;16.922;2023-03-31T17:40:54;11.00;;;6.40;;
77109;SDS011;66062;52.464;16.922;2023-03-31T17:43:20;12.05;;;7.18;;
77109;SDS011;66062;52.464;16.922;2023-03-31T17:45:46;10.38;;;5.97;;
77109;SDS011;66062;52.464;16.922;2023-03-31T17:48:11;14.73;;;6.63;;
77109;SDS011;66062;52.464;16.922;2023-03-31T17:50:37;12.75;;;6.72;;
77109;SDS011;66062;52.464;16.922;2023-03-31T17:53:02;15.70;;;7.47;;
77109;SDS011;66062;52.464;16.922;2023-03-31T17:55:33;14.30;;;7.18;;
77109;SDS011;66062;52.464;16.922;2023-03-31T18:00:25;12.73;;;7.00;;
77109;SDS011;66062;52.464;16.922;2023-03-31T18:02:51;15.98;;;7.38;;
77109;SDS011;66062;52.464;16.922;2023-03-31T18:05:16;15.88;;;8.15;;